createdAt,value
2019-02-27T00:01:16.757Z,6.27
2019-02-27T00:03:44.281Z,7.33
2019-02-27T00:06:12.893Z,6.57
2019-02-27T00:08:43.028Z,6.70
2019-02-27T00:11:12.484Z,8.23
2019-02-27T00:13:41.685Z,8.03
2019-02-27T00:16:11.048Z,7.07
2019-02-27T00:18:40.438Z,7.63
2019-02-27T00:21:10.993Z,8.73
2019-02-27T00:23:39.323Z,8.97
2019-02-27T00:26:08.979Z,7.80
2019-02-27T00:28:38.189Z,8.67
2019-02-27T00:31:11.219Z,8.63
2019-02-27T00:33:37.156Z,7.17
2019-02-27T00:36:05.947Z,6.73
2019-02-27T00:38:34.486Z,6.70
2019-02-27T00:41:03.082Z,6.63
2019-02-27T00:43:31.621Z,6.77
2019-02-27T00:46:00.202Z,6.90
2019-02-27T00:48:28.873Z,6.77
2019-02-27T00:50:57.736Z,6.60
2019-02-27T00:53:26.307Z,7.27
2019-02-27T00:55:54.900Z,7.10
2019-02-27T00:58:26.798Z,6.90
2019-02-27T01:00:53.809Z,6.17
2019-02-27T01:03:25.973Z,6.10
2019-02-27T01:05:52.603Z,5.93
2019-02-27T01:08:21.135Z,5.90
2019-02-27T01:10:49.716Z,6.27
2019-02-27T01:13:24.273Z,7.03
2019-02-27T01:15:53.646Z,5.63
2019-02-27T01:18:22.482Z,5.87
2019-02-27T01:20:51.605Z,5.53
2019-02-27T01:23:20.474Z,5.90
2019-02-27T01:25:49.135Z,6.07
2019-02-27T01:28:17.764Z,5.57
2019-02-27T01:30:46.341Z,5.90
2019-02-27T01:33:37.789Z,5.63
2019-02-27T01:36:04.603Z,6.20
2019-02-27T01:38:33.154Z,4.77
2019-02-27T01:41:24.423Z,5.03
2019-02-27T01:43:51.391Z,4.80
2019-02-27T01:46:20.148Z,5.03
2019-02-27T01:49:08.006Z,6.27
2019-02-27T01:51:36.602Z,4.80
2019-02-27T01:54:05.252Z,5.20
2019-02-27T01:56:33.845Z,4.60
2019-02-27T01:59:02.444Z,5.07
2019-02-27T02:01:31.089Z,5.23
2019-02-27T02:03:59.928Z,5.50
2019-02-27T02:06:31.920Z,5.30
2019-02-27T02:09:31.285Z,4.63
2019-02-27T02:12:03.281Z,4.80
2019-02-27T02:14:54.373Z,6.07
2019-02-27T02:17:26.212Z,4.90
2019-02-27T02:20:00.940Z,5.47
2019-02-27T02:22:32.476Z,5.23
2019-02-27T02:25:09.805Z,5.00
2019-02-27T02:27:56.449Z,4.83
2019-02-27T02:30:39.929Z,5.03
2019-02-27T02:33:11.614Z,5.50
2019-02-27T02:36:07.730Z,5.70
2019-02-27T02:38:48.255Z,6.93
2019-02-27T02:41:25.750Z,5.03
2019-02-27T02:44:21.953Z,5.40
2019-02-27T02:47:05.950Z,5.33
2019-02-27T02:49:49.687Z,5.23
2019-02-27T02:52:40.772Z,5.60
2019-02-27T02:55:20.342Z,5.23
2019-02-27T02:58:07.810Z,5.40
2019-02-27T03:01:04.482Z,5.50
2019-02-27T03:03:51.014Z,5.07
2019-02-27T03:06:34.721Z,5.70
2019-02-27T03:09:21.365Z,4.90
2019-02-27T03:11:54.726Z,4.60
2019-02-27T03:14:53.339Z,5.13
2019-02-27T03:17:45.255Z,4.90
2019-02-27T03:20:52.413Z,5.27
2019-02-27T03:23:38.698Z,5.30
2019-02-27T03:26:29.749Z,5.03
2019-02-27T03:29:01.354Z,5.43
2019-02-27T03:31:57.426Z,4.80
2019-02-27T03:34:27.171Z,4.83
2019-02-27T03:36:58.826Z,6.10
2019-02-27T03:39:45.540Z,5.63
2019-02-27T03:42:17.164Z,6.50
2019-02-27T03:45:01.044Z,6.13
2019-02-27T03:48:09.217Z,5.70
2019-02-27T03:50:56.002Z,5.27
2019-02-27T03:53:46.424Z,4.27
2019-02-27T03:56:30.715Z,4.23
2019-02-27T03:59:20.508Z,4.67
2019-02-27T04:02:06.300Z,4.97
2019-02-27T04:05:12.235Z,4.90
2019-02-27T04:08:06.818Z,4.60
2019-02-27T04:10:31.248Z,4.40
2019-02-27T04:13:00.967Z,4.57
2019-02-27T04:15:29.605Z,4.43
2019-02-27T04:17:57.226Z,4.73
2019-02-27T04:20:25.877Z,5.20
2019-02-27T04:22:54.484Z,4.70
2019-02-27T04:25:23.065Z,4.80
2019-02-27T04:27:55.236Z,6.37
2019-02-27T04:30:21.897Z,5.50
2019-02-27T04:32:50.517Z,5.40
2019-02-27T04:35:19.079Z,6.47
2019-02-27T04:37:47.670Z,6.40
2019-02-27T04:40:16.413Z,6.83
2019-02-27T04:42:44.969Z,5.77
2019-02-27T04:45:13.597Z,5.87
2019-02-27T04:47:42.155Z,5.50
2019-02-27T04:50:11.377Z,6.57
2019-02-27T04:52:40.811Z,6.87
2019-02-27T04:55:09.421Z,6.13
2019-02-27T04:57:37.959Z,5.10
2019-02-27T05:00:09.410Z,5.50
2019-02-27T05:02:38.025Z,5.07
2019-02-27T05:05:08.724Z,5.30
2019-02-27T05:07:38.033Z,6.50
2019-02-27T05:10:09.646Z,5.90
2019-02-27T05:12:38.303Z,5.20
2019-02-27T05:15:08.899Z,5.73
2019-02-27T05:17:39.201Z,6.13
2019-02-27T05:20:11.484Z,6.50
2019-02-27T05:22:39.418Z,6.80
2019-02-27T05:25:08.192Z,6.77
2019-02-27T05:27:36.801Z,6.43
2019-02-27T05:30:13.325Z,7.43
2019-02-27T05:32:41.968Z,7.57
2019-02-27T05:35:10.508Z,7.30
2019-02-27T05:37:39.425Z,7.57
2019-02-27T05:40:10.511Z,7.70
2019-02-27T05:42:39.675Z,6.90
2019-02-27T05:45:14.415Z,7.63
2019-02-27T05:47:45.663Z,7.57
2019-02-27T05:50:13.481Z,7.17
2019-02-27T05:52:42.064Z,9.40
2019-02-27T05:55:10.743Z,8.37
2019-02-27T05:57:39.331Z,7.50
2019-02-27T06:00:13.715Z,8.43
2019-02-27T06:02:44.979Z,7.37
2019-02-27T06:05:13.217Z,7.23
2019-02-27T06:07:41.729Z,6.20
2019-02-27T06:10:19.742Z,5.47
2019-02-27T06:12:45.189Z,5.07
2019-02-27T06:15:18.492Z,6.10
2019-02-27T06:17:49.102Z,5.20
2019-02-27T06:20:17.481Z,6.27
2019-02-27T06:22:46.081Z,5.33
2019-02-27T06:25:21.695Z,5.53
2019-02-27T06:27:47.988Z,5.50
2019-02-27T06:30:18.706Z,6.27
2019-02-27T06:32:47.700Z,7.33
2019-02-27T06:35:16.984Z,6.83
2019-02-27T06:37:45.616Z,6.53
2019-02-27T06:40:18.669Z,6.33
2019-02-27T06:42:47.315Z,6.83
2019-02-27T06:45:17.834Z,6.97
2019-02-27T06:47:46.467Z,6.77
2019-02-27T06:50:18.046Z,8.00
2019-02-27T06:52:46.585Z,7.60
2019-02-27T06:55:16.041Z,7.07
2019-02-27T06:57:44.664Z,6.87
2019-02-27T07:00:24.087Z,6.90
2019-02-27T07:02:55.130Z,7.63
2019-02-27T07:05:23.128Z,7.53
2019-02-27T07:07:51.757Z,7.90
2019-02-27T07:10:20.683Z,8.27
2019-02-27T07:12:49.496Z,8.90
2019-02-27T07:15:19.937Z,8.13
2019-02-27T07:17:48.396Z,7.70
2019-02-27T07:20:17.417Z,7.10
2019-02-27T07:22:46.773Z,6.80
2019-02-27T07:25:19.327Z,7.50
2019-02-27T07:27:47.991Z,7.47
2019-02-27T07:30:20.614Z,8.13
2019-02-27T07:32:49.488Z,8.07
2019-02-27T07:35:18.176Z,8.80
2019-02-27T07:37:47.974Z,7.60
2019-02-27T07:40:18.801Z,7.07
2019-02-27T07:42:47.460Z,7.40
2019-02-27T07:45:24.993Z,7.93
2019-02-27T07:47:53.493Z,11.47
2019-02-27T07:50:22.478Z,9.80
2019-02-27T07:52:52.095Z,8.20
2019-02-27T07:55:22.913Z,7.03
2019-02-27T07:57:51.424Z,7.17
2019-02-27T08:00:22.347Z,7.33
2019-02-27T08:02:50.977Z,7.43
2019-02-27T08:05:19.708Z,7.20
2019-02-27T08:07:49.034Z,8.50
2019-02-27T08:10:23.548Z,7.67
2019-02-27T08:12:55.507Z,7.87
2019-02-27T08:15:23.277Z,7.53
2019-02-27T08:17:52.014Z,7.77
2019-02-27T08:20:21.235Z,8.10
2019-02-27T08:22:50.222Z,7.27
2019-02-27T08:25:20.854Z,8.37
2019-02-27T08:27:50.434Z,7.40
2019-02-27T08:30:21.349Z,8.47
2019-02-27T08:32:50.059Z,8.67
2019-02-27T08:35:18.682Z,10.70
2019-02-27T08:37:47.378Z,9.60
2019-02-27T08:40:16.220Z,10.10
2019-02-27T08:42:44.950Z,9.07
2019-02-27T08:45:20.477Z,10.00
2019-02-27T08:47:49.329Z,9.30
2019-02-27T08:50:23.484Z,9.53
2019-02-27T08:52:52.033Z,8.80
2019-02-27T08:55:22.667Z,8.70
2019-02-27T08:57:56.044Z,9.10
2019-02-27T09:00:29.833Z,8.63
2019-02-27T09:03:02.517Z,8.57
2019-02-27T09:05:28.846Z,8.23
2019-02-27T09:07:57.479Z,8.57
2019-02-27T09:10:30.454Z,7.83
2019-02-27T09:13:05.352Z,7.73
2019-02-27T09:15:28.254Z,8.97
2019-02-27T09:17:59.210Z,8.07
2019-02-27T09:20:27.201Z,7.67
2019-02-27T09:22:56.008Z,8.23
2019-02-27T09:25:24.962Z,7.70
2019-02-27T09:27:55.041Z,7.70
2019-02-27T09:30:29.276Z,8.13
2019-02-27T09:32:57.145Z,6.57
2019-02-27T09:35:25.836Z,7.60
2019-02-27T09:37:54.483Z,9.13
2019-02-27T09:40:42.526Z,8.43
2019-02-27T09:43:11.721Z,7.97
2019-02-27T09:45:46.216Z,8.60
2019-02-27T09:48:12.591Z,8.20
2019-02-27T09:50:47.625Z,8.93
2019-02-27T09:53:14.108Z,8.17
2019-02-27T09:55:42.776Z,8.00
2019-02-27T09:58:12.274Z,8.07
2019-02-27T10:00:45.908Z,8.23
2019-02-27T10:03:20.236Z,9.13
2019-02-27T10:05:45.724Z,8.63
2019-02-27T10:08:14.697Z,8.33
2019-02-27T10:10:45.781Z,8.40
2019-02-27T10:13:13.743Z,9.60
2019-02-27T10:15:42.582Z,8.77
2019-02-27T10:18:11.308Z,10.33
2019-02-27T10:20:39.961Z,9.73
2019-02-27T10:23:08.805Z,11.33
2019-02-27T10:25:37.470Z,10.43
2019-02-27T10:28:06.227Z,10.13
2019-02-27T10:30:34.768Z,9.83
2019-02-27T10:33:03.640Z,9.40
2019-02-27T10:35:34.669Z,10.13
2019-02-27T10:38:03.153Z,8.53
2019-02-27T10:40:32.148Z,8.60
2019-02-27T10:43:00.803Z,10.13
2019-02-27T10:45:29.438Z,9.63
2019-02-27T10:47:58.357Z,9.83
2019-02-27T10:50:30.583Z,10.20
2019-02-27T10:52:59.238Z,9.20
2019-02-27T10:55:27.912Z,9.43
2019-02-27T10:57:56.842Z,9.57
2019-02-27T11:00:29.131Z,9.07
2019-02-27T11:02:58.753Z,9.17
2019-02-27T11:05:29.681Z,10.10
2019-02-27T11:07:58.251Z,9.50
2019-02-27T11:10:27.035Z,7.97
2019-02-27T11:12:56.037Z,7.97
2019-02-27T11:15:24.682Z,7.10
2019-02-27T11:17:54.380Z,6.30
2019-02-27T11:20:24.609Z,6.57
2019-02-27T11:22:53.493Z,5.50
2019-02-27T11:25:33.007Z,5.70
2019-02-27T11:28:01.671Z,6.23
2019-02-27T11:30:41.007Z,5.90
2019-02-27T11:33:10.131Z,5.37
2019-02-27T11:35:39.110Z,4.70
2019-02-27T11:38:08.084Z,4.63
2019-02-27T11:40:41.537Z,4.53
2019-02-27T11:43:07.594Z,4.23
2019-02-27T11:45:36.697Z,5.10
2019-02-27T11:48:07.878Z,4.87
2019-02-27T11:50:38.489Z,4.83
2019-02-27T11:53:26.529Z,5.27
2019-02-27T11:55:55.197Z,5.67
2019-02-27T11:58:23.826Z,5.13
2019-02-27T12:00:54.670Z,5.80
2019-02-27T12:03:23.530Z,5.27
2019-02-27T12:05:52.056Z,5.60
2019-02-27T12:08:22.420Z,5.63
2019-02-27T12:10:51.320Z,5.43
2019-02-27T12:13:19.964Z,5.37
2019-02-27T12:15:48.879Z,6.20
2019-02-27T12:18:17.668Z,6.10
2019-02-27T12:20:46.517Z,5.23
2019-02-27T12:23:15.177Z,5.50
2019-02-27T12:25:44.115Z,5.80
2019-02-27T12:28:15.210Z,6.00
2019-02-27T12:30:44.560Z,5.97
2019-02-27T12:33:13.204Z,5.53
2019-02-27T12:35:44.007Z,5.40
2019-02-27T12:38:12.220Z,5.13
2019-02-27T12:40:41.067Z,6.00
2019-02-27T12:43:09.823Z,5.63
2019-02-27T12:45:38.711Z,6.40
2019-02-27T12:48:08.775Z,6.27
2019-02-27T12:50:37.651Z,6.13
2019-02-27T12:53:06.260Z,6.17
2019-02-27T12:55:36.415Z,5.67
2019-02-27T12:58:05.685Z,6.60
2019-02-27T13:00:37.131Z,5.20
2019-02-27T13:03:08.460Z,5.43
2019-02-27T13:05:36.675Z,5.30
2019-02-27T13:08:05.361Z,5.53
2019-02-27T13:10:34.379Z,5.33
2019-02-27T13:13:03.359Z,5.83
2019-02-27T13:15:32.250Z,4.83
2019-02-27T13:18:00.871Z,4.90
2019-02-27T13:20:31.748Z,4.67
2019-02-27T13:23:04.129Z,4.27
2019-02-27T13:25:30.992Z,4.40
2019-02-27T13:27:59.887Z,4.93
2019-02-27T13:30:29.977Z,4.60
2019-02-27T13:33:01.098Z,4.90
2019-02-27T13:35:30.399Z,5.53
2019-02-27T13:37:58.956Z,5.40
2019-02-27T13:40:34.985Z,5.70
2019-02-27T13:43:01.243Z,5.13
2019-02-27T13:45:32.436Z,5.10
2019-02-27T13:48:04.838Z,4.70
2019-02-27T13:50:31.448Z,5.03
2019-02-27T13:53:00.109Z,4.57
2019-02-27T13:55:28.798Z,4.07
2019-02-27T13:57:59.199Z,4.93
2019-02-27T14:00:33.613Z,4.17
2019-02-27T14:03:02.355Z,4.53
2019-02-27T14:05:35.101Z,4.67
2019-02-27T14:08:01.416Z,6.70
2019-02-27T14:10:34.405Z,6.40
2019-02-27T14:13:03.101Z,9.60
2019-02-27T14:15:31.999Z,10.63
2019-02-27T14:18:00.796Z,9.33
2019-02-27T14:20:29.897Z,8.47
2019-02-27T14:22:59.547Z,7.37
2019-02-27T14:25:33.000Z,5.53
2019-02-27T14:28:00.933Z,5.77
2019-02-27T14:30:40.005Z,5.37
2019-02-27T14:33:08.613Z,5.30
2019-02-27T14:35:37.281Z,5.13
2019-02-27T14:38:05.915Z,4.63
2019-02-27T14:40:37.650Z,4.77
2019-02-27T14:43:06.773Z,5.70
2019-02-27T14:45:39.558Z,4.93
2019-02-27T14:48:06.608Z,5.60
2019-02-27T14:50:37.667Z,5.33
2019-02-27T14:53:06.236Z,5.33
2019-02-27T14:55:37.235Z,5.63
2019-02-27T14:58:05.751Z,5.20
2019-02-27T15:00:39.829Z,5.30
2019-02-27T15:03:06.774Z,4.60
2019-02-27T15:05:36.756Z,5.10
2019-02-27T15:08:05.830Z,5.50
2019-02-27T15:10:40.222Z,5.10
2019-02-27T15:13:28.333Z,5.47
2019-02-27T15:16:00.358Z,5.67
2019-02-27T15:18:29.042Z,4.97
2019-02-27T15:20:57.737Z,5.40
2019-02-27T15:23:28.187Z,5.67
2019-02-27T15:25:56.706Z,7.20
2019-02-27T15:28:25.294Z,7.00
2019-02-27T15:30:53.966Z,6.17
2019-02-27T15:33:22.645Z,6.83
2019-02-27T15:35:55.142Z,6.83
2019-02-27T15:38:22.226Z,6.50
2019-02-27T15:40:50.889Z,6.70
2019-02-27T15:43:19.948Z,7.10
2019-02-27T15:45:49.082Z,7.67
2019-02-27T15:48:18.236Z,7.23
2019-02-27T15:50:47.058Z,7.40
2019-02-27T15:53:15.908Z,7.77
2019-02-27T15:55:44.654Z,7.13
2019-02-27T15:58:14.653Z,7.70
2019-02-27T16:00:44.976Z,7.17
2019-02-27T16:03:16.022Z,6.63
2019-02-27T16:05:45.181Z,6.60
2019-02-27T16:08:15.351Z,7.63
2019-02-27T16:10:54.518Z,7.67
2019-02-27T16:13:16.008Z,7.30
2019-02-27T16:15:48.405Z,7.13
2019-02-27T16:18:15.424Z,7.60
2019-02-27T16:20:44.010Z,7.00
2019-02-27T16:23:12.556Z,7.00
2019-02-27T16:25:41.133Z,6.77
2019-02-27T16:28:12.068Z,6.93
2019-02-27T16:30:40.327Z,7.80
2019-02-27T16:33:09.053Z,8.13
2019-02-27T16:35:41.639Z,7.47
2019-02-27T16:38:08.581Z,7.53
2019-02-27T16:40:37.249Z,7.87
2019-02-27T16:43:05.768Z,7.33
2019-02-27T16:45:37.127Z,7.37
2019-02-27T16:48:06.231Z,7.93
2019-02-27T16:50:39.661Z,6.23
2019-02-27T16:53:08.192Z,7.27
2019-02-27T16:55:38.066Z,8.33
2019-02-27T16:58:07.269Z,7.60
2019-02-27T17:00:39.189Z,7.87
2019-02-27T17:03:13.083Z,7.53
2019-02-27T17:05:40.357Z,8.13
2019-02-27T17:08:08.913Z,7.60
2019-02-27T17:10:38.738Z,7.47
2019-02-27T17:13:07.470Z,8.03
2019-02-27T17:15:36.525Z,8.30
2019-02-27T17:18:05.614Z,7.90
2019-02-27T17:20:34.366Z,9.27
2019-02-27T17:23:07.446Z,9.27
2019-02-27T17:25:33.272Z,8.83
2019-02-27T17:28:02.477Z,9.00
2019-02-27T17:30:38.167Z,10.07
2019-02-27T17:33:07.275Z,9.67
2019-02-27T17:35:35.883Z,10.50
2019-02-27T17:38:04.630Z,9.23
2019-02-27T17:40:36.220Z,9.77
2019-02-27T17:43:03.704Z,10.37
2019-02-27T17:45:32.756Z,10.73
2019-02-27T17:48:01.569Z,10.53
2019-02-27T17:50:31.720Z,9.63
2019-02-27T17:53:00.510Z,10.13
2019-02-27T17:55:29.446Z,11.30
2019-02-27T17:57:59.237Z,11.37
2019-02-27T18:00:31.357Z,11.43
2019-02-27T18:03:00.101Z,11.80
2019-02-27T18:05:28.766Z,12.47
2019-02-27T18:07:57.454Z,11.20
2019-02-27T18:10:26.377Z,12.23
2019-02-27T18:12:55.042Z,12.30
2019-02-27T18:15:24.746Z,12.77
2019-02-27T18:17:53.775Z,14.00
2019-02-27T18:20:25.526Z,14.50
2019-02-27T18:22:53.395Z,13.43
2019-02-27T18:25:22.225Z,13.70
2019-02-27T18:27:50.773Z,14.87
2019-02-27T18:30:21.288Z,14.60
2019-02-27T18:32:51.167Z,13.47
2019-02-27T18:35:20.583Z,15.37
2019-02-27T18:37:53.608Z,14.70
2019-02-27T18:40:21.010Z,14.30
2019-02-27T18:43:08.983Z,14.97
2019-02-27T18:45:37.561Z,14.93
2019-02-27T18:48:07.316Z,15.20
2019-02-27T18:50:37.438Z,15.00
2019-02-27T18:53:07.476Z,14.07
2019-02-27T18:55:36.447Z,15.23
2019-02-27T18:58:05.445Z,15.23
2019-02-27T19:00:36.302Z,13.77
2019-02-27T19:03:12.038Z,13.27
2019-02-27T19:05:42.042Z,12.73
2019-02-27T19:08:11.207Z,13.43
2019-02-27T19:10:42.378Z,13.23
2019-02-27T19:13:10.028Z,13.67
2019-02-27T19:15:38.871Z,13.10
2019-02-27T19:18:08.143Z,12.77
2019-02-27T19:20:47.171Z,12.90
2019-02-27T19:23:17.848Z,12.80
2019-02-27T19:25:46.590Z,12.67
2019-02-27T19:28:15.781Z,12.53
2019-02-27T19:30:44.517Z,13.57
2019-02-27T19:33:13.139Z,11.43
2019-02-27T19:35:41.810Z,12.03
2019-02-27T19:38:12.903Z,12.97
2019-02-27T19:40:41.608Z,12.40
2019-02-27T19:43:10.296Z,11.03
2019-02-27T19:45:38.908Z,12.00
2019-02-27T19:48:07.587Z,11.83
2019-02-27T19:50:36.500Z,12.10
2019-02-27T19:53:06.900Z,10.70
2019-02-27T19:55:35.867Z,11.50
2019-02-27T19:58:04.534Z,11.93
2019-02-27T20:00:35.411Z,12.17
2019-02-27T20:03:23.660Z,13.27
2019-02-27T20:05:53.898Z,11.23
2019-02-27T20:08:26.355Z,11.20
2019-02-27T20:10:54.747Z,10.67
2019-02-27T20:13:24.715Z,11.97
2019-02-27T20:15:54.080Z,11.50
2019-02-27T20:18:43.650Z,13.30
2019-02-27T20:21:17.428Z,15.37
2019-02-27T20:23:45.977Z,16.47
2019-02-27T20:26:20.093Z,14.63
2019-02-27T20:28:45.523Z,14.33
2019-02-27T20:31:17.858Z,13.17
2019-02-27T20:33:44.897Z,14.67
2019-02-27T20:36:13.493Z,16.23
2019-02-27T20:38:43.490Z,18.00
2019-02-27T20:41:12.280Z,17.37
2019-02-27T20:43:40.863Z,18.13
2019-02-27T20:46:14.656Z,17.87
2019-02-27T20:48:42.686Z,14.63
2019-02-27T20:51:11.579Z,16.53
2019-02-27T20:53:40.215Z,15.27
2019-02-27T20:56:08.938Z,14.83
2019-02-27T20:58:37.690Z,15.10
2019-02-27T21:01:09.988Z,14.00
2019-02-27T21:03:36.802Z,15.57
2019-02-27T21:06:05.489Z,14.40
2019-02-27T21:08:36.176Z,14.47
2019-02-27T21:11:23.756Z,14.33
2019-02-27T21:13:52.336Z,16.07
2019-02-27T21:16:21.061Z,14.93
2019-02-27T21:18:49.854Z,15.13
2019-02-27T21:21:19.829Z,14.07
2019-02-27T21:23:48.753Z,14.37
2019-02-27T21:26:19.980Z,13.67
2019-02-27T21:28:58.096Z,12.23
2019-02-27T21:31:19.719Z,14.00
2019-02-27T21:33:48.356Z,13.97
2019-02-27T21:36:17.102Z,16.43
2019-02-27T21:38:47.522Z,22.40
2019-02-27T21:41:16.076Z,16.73
2019-02-27T21:43:45.072Z,15.00
2019-02-27T21:46:13.734Z,12.77
2019-02-27T21:48:42.555Z,11.83
2019-02-27T21:51:13.849Z,13.13
2019-02-27T21:53:43.465Z,13.23
2019-02-27T21:56:12.234Z,12.40
2019-02-27T21:58:40.838Z,13.20
2019-02-27T22:01:09.586Z,13.53
2019-02-27T22:03:38.398Z,13.63
2019-02-27T22:06:10.451Z,13.00
2019-02-27T22:08:39.554Z,14.33
2019-02-27T22:11:08.522Z,13.77
2019-02-27T22:13:37.047Z,15.13
2019-02-27T22:16:05.742Z,15.27
2019-02-27T22:18:34.518Z,12.60
2019-02-27T22:21:03.166Z,13.27
2019-02-27T22:23:31.988Z,17.10
2019-02-27T22:26:03.145Z,19.93
2019-02-27T22:28:30.808Z,16.93
2019-02-27T22:30:59.416Z,14.30
2019-02-27T22:33:28.071Z,15.83
2019-02-27T22:35:56.662Z,16.53
2019-02-27T22:38:26.596Z,15.87
2019-02-27T22:40:56.733Z,16.33
2019-02-27T22:43:25.373Z,16.33
2019-02-27T22:45:53.968Z,14.73
2019-02-27T22:48:22.558Z,15.33
2019-02-27T22:50:51.597Z,12.77
2019-02-27T22:53:20.216Z,14.47
2019-02-27T22:55:48.775Z,14.33
2019-02-27T22:58:19.559Z,13.03
2019-02-27T23:00:57.859Z,14.47
2019-02-27T23:03:44.673Z,13.57
2019-02-27T23:06:14.376Z,12.97
2019-02-27T23:08:44.166Z,14.13
2019-02-27T23:11:13.330Z,15.20
2019-02-27T23:13:47.413Z,16.00
2019-02-27T23:16:15.617Z,15.50
2019-02-27T23:18:44.380Z,13.43
2019-02-27T23:21:13.307Z,13.57
2019-02-27T23:23:42.162Z,13.60
2019-02-27T23:26:10.830Z,13.30
2019-02-27T23:28:39.674Z,13.43
2019-02-27T23:31:22.236Z,13.43
2019-02-27T23:33:46.818Z,13.10
2019-02-27T23:36:15.414Z,12.47
2019-02-27T23:38:44.107Z,11.83
2019-02-27T23:41:12.854Z,11.73
2019-02-27T23:43:41.574Z,13.17
2019-02-27T23:46:10.334Z,11.20
2019-02-27T23:48:39.057Z,11.70
2019-02-27T23:51:07.642Z,11.60
2019-02-27T23:53:38.237Z,11.73
2019-02-27T23:56:07.205Z,12.87
2019-02-27T23:58:35.814Z,12.77
